createdAt,value
2023-01-13T00:01:28.187Z,98281.89
2023-01-13T00:03:57.344Z,98276.83
2023-01-13T00:06:26.302Z,98278.21
2023-01-13T00:08:54.712Z,98274.14
2023-01-13T00:11:23.491Z,98277.30
2023-01-13T00:13:51.722Z,98276.96
2023-01-13T00:16:20.972Z,98274.33
2023-01-13T00:18:51.276Z,98274.23
2023-01-13T00:21:22.375Z,98273.41
2023-01-13T00:23:54.124Z,98277.98
2023-01-13T00:26:28.170Z,98274.52
2023-01-13T00:28:58.483Z,98268.44
2023-01-13T00:31:29.319Z,98271.34
2023-01-13T00:33:59.577Z,98275.33
2023-01-13T00:36:29.319Z,98272.81
2023-01-13T00:38:58.073Z,98272.48
2023-01-13T00:41:27.543Z,98270.10
2023-01-13T00:43:55.608Z,98270.89
2023-01-13T00:46:24.026Z,98271.84
2023-01-13T00:48:52.347Z,98268.77
2023-01-13T00:51:21.916Z,98266.00
2023-01-13T00:53:52.004Z,98269.42
2023-01-13T00:56:39.256Z,98270.89
2023-01-13T00:59:12.278Z,98266.00
2023-01-13T01:01:41.442Z,98269.77
2023-01-13T01:04:09.560Z,98274.24
2023-01-13T01:06:37.911Z,98275.17
2023-01-13T01:09:06.876Z,98277.88
2023-01-13T01:11:35.309Z,98276.05
2023-01-13T01:14:04.379Z,98278.73
2023-01-13T01:16:34.176Z,98269.48
2023-01-13T01:19:03.676Z,98264.33
2023-01-13T01:21:32.627Z,98264.62
2023-01-13T01:24:02.883Z,98260.86
2023-01-13T01:26:31.961Z,98257.42
2023-01-13T01:29:02.299Z,98259.89
2023-01-13T01:31:33.552Z,98259.99
2023-01-13T01:34:01.981Z,98255.23
2023-01-13T01:36:30.475Z,98249.46
2023-01-13T01:39:00.078Z,98248.35
2023-01-13T01:41:32.512Z,98248.89
2023-01-13T01:44:38.402Z,98249.19
2023-01-13T01:47:06.712Z,98245.50
2023-01-13T01:49:37.367Z,98244.21
2023-01-13T01:52:39.164Z,98243.16
2023-01-13T01:55:34.601Z,98237.37
2023-01-13T01:58:15.515Z,98236.05
2023-01-13T02:00:44.228Z,98234.47
2023-01-13T02:03:13.217Z,98241.30
2023-01-13T02:05:41.686Z,98239.08
2023-01-13T02:08:12.649Z,98242.38
2023-01-13T02:10:42.984Z,98245.45
2023-01-13T02:13:13.653Z,98238.17
2023-01-13T02:15:51.053Z,98240.89
2023-01-13T02:18:37.974Z,98239.91
2023-01-13T02:21:40.042Z,98236.34
2023-01-13T02:24:51.450Z,98239.37
2023-01-13T02:27:25.400Z,98238.35
2023-01-13T02:30:50.817Z,98237.39
2023-01-13T02:33:49.336Z,98238.87
2023-01-13T02:36:35.313Z,98235.05
2023-01-13T02:39:16.911Z,98230.73
2023-01-13T02:42:07.822Z,98231.14
2023-01-13T02:44:59.031Z,98233.73
2023-01-13T02:47:31.193Z,98239.27
2023-01-13T02:50:04.068Z,98242.79
2023-01-13T02:52:38.272Z,98244.78
2023-01-13T02:55:23.685Z,98246.21
2023-01-13T02:57:54.195Z,98248.42
2023-01-13T03:00:23.898Z,98252.86
2023-01-13T03:02:52.556Z,98255.30
2023-01-13T03:05:20.885Z,98256.36
2023-01-13T03:08:01.801Z,98258.79
2023-01-13T03:10:33.500Z,98254.83
2023-01-13T03:13:04.629Z,98252.73
2023-01-13T03:16:06.519Z,98253.13
2023-01-13T03:18:48.006Z,98249.98
2023-01-13T03:21:25.567Z,98250.48
2023-01-13T03:23:58.501Z,98257.30
2023-01-13T03:26:35.784Z,98255.70
2023-01-13T03:29:24.597Z,98256.98
2023-01-13T03:32:05.806Z,98256.83
2023-01-13T03:34:45.953Z,98253.38
2023-01-13T03:37:17.636Z,98254.01
2023-01-13T03:39:54.966Z,98257.08
2023-01-13T03:42:26.379Z,98259.08
2023-01-13T03:45:01.581Z,98260.62
2023-01-13T03:47:49.387Z,98259.98
2023-01-13T03:50:23.517Z,98258.71
2023-01-13T03:53:15.795Z,98255.77
2023-01-13T03:55:48.850Z,98257.55
2023-01-13T03:58:35.436Z,98261.84
2023-01-13T04:01:35.315Z,98265.03
2023-01-13T04:04:07.226Z,98263.77
2023-01-13T04:06:50.605Z,98265.40
2023-01-13T04:09:21.207Z,98267.73
2023-01-13T04:11:56.640Z,98269.77
2023-01-13T04:14:26.166Z,98271.20
2023-01-13T04:16:57.252Z,98273.52
2023-01-13T04:19:25.380Z,98268.02
2023-01-13T04:21:53.409Z,98271.73
2023-01-13T04:24:21.697Z,98276.11
2023-01-13T04:26:50.666Z,98276.98
2023-01-13T04:29:18.729Z,98275.95
2023-01-13T04:31:46.911Z,98273.80
2023-01-13T04:34:15.075Z,98273.73
2023-01-13T04:36:43.799Z,98272.45
2023-01-13T04:39:12.483Z,98271.30
2023-01-13T04:41:58.833Z,98274.73
2023-01-13T04:44:27.565Z,98277.12
2023-01-13T04:46:56.362Z,98276.11
2023-01-13T04:49:24.801Z,98280.62
2023-01-13T04:51:53.246Z,98280.61
2023-01-13T04:54:21.670Z,98286.02
2023-01-13T04:56:49.953Z,98288.16
2023-01-13T04:59:18.010Z,98285.48
2023-01-13T05:01:46.239Z,98282.68
2023-01-13T05:04:15.632Z,98282.73
2023-01-13T05:06:43.960Z,98284.96
2023-01-13T05:09:13.482Z,98282.14
2023-01-13T05:12:00.941Z,98277.79
2023-01-13T05:14:48.037Z,98276.63
2023-01-13T05:17:22.707Z,98279.05
2023-01-13T05:19:51.295Z,98277.87
2023-01-13T05:22:38.118Z,98280.08
2023-01-13T05:25:24.659Z,98284.48
2023-01-13T05:27:55.986Z,98280.63
2023-01-13T05:30:26.771Z,98282.08
2023-01-13T05:32:55.285Z,98286.32
2023-01-13T05:35:24.480Z,98290.42
2023-01-13T05:37:52.495Z,98292.32
2023-01-13T05:40:39.169Z,98290.67
2023-01-13T05:43:24.933Z,98289.23
2023-01-13T05:46:05.664Z,98287.67
2023-01-13T05:48:42.652Z,98288.50
2023-01-13T05:51:12.875Z,98289.96
2023-01-13T05:53:41.618Z,98293.02
2023-01-13T05:56:11.321Z,98293.52
2023-01-13T05:58:39.658Z,98302.06
2023-01-13T06:01:09.547Z,98301.55
2023-01-13T06:03:38.487Z,98300.28
2023-01-13T06:06:09.193Z,98305.27
2023-01-13T06:08:39.695Z,98308.63
2023-01-13T06:11:08.222Z,98308.67
2023-01-13T06:13:36.296Z,98303.35
2023-01-13T06:16:05.092Z,98302.47
2023-01-13T06:18:33.474Z,98304.17
2023-01-13T06:21:01.842Z,98305.09
2023-01-13T06:23:32.170Z,98307.05
2023-01-13T06:26:08.483Z,98311.58
2023-01-13T06:28:36.708Z,98312.77
2023-01-13T06:31:07.906Z,98314.02
2023-01-13T06:33:44.640Z,98316.74
2023-01-13T06:36:26.999Z,98316.57
2023-01-13T06:38:59.650Z,98318.82
2023-01-13T06:41:48.423Z,98322.35
2023-01-13T06:44:17.918Z,98323.05
2023-01-13T06:46:46.861Z,98322.70
2023-01-13T06:49:15.038Z,98323.82
2023-01-13T06:51:44.421Z,98326.33
2023-01-13T06:54:12.702Z,98320.64
2023-01-13T06:56:40.768Z,98316.02
2023-01-13T06:59:09.069Z,98315.75
2023-01-13T07:01:37.232Z,98317.46
2023-01-13T07:04:05.937Z,98319.41
2023-01-13T07:06:34.029Z,98325.41
2023-01-13T07:09:02.999Z,98325.34
2023-01-13T07:11:31.337Z,98325.70
2023-01-13T07:14:20.299Z,98320.45
2023-01-13T07:16:48.520Z,98316.29
2023-01-13T07:19:23.279Z,98317.20
2023-01-13T07:21:52.708Z,98321.92
2023-01-13T07:24:22.571Z,98318.04
2023-01-13T07:26:52.156Z,98317.81
2023-01-13T07:29:23.058Z,98314.91
2023-01-13T07:31:51.157Z,98310.95
2023-01-13T07:34:19.505Z,98312.27
2023-01-13T07:36:47.951Z,98312.95
2023-01-13T07:39:15.997Z,98315.95
2023-01-13T07:42:02.687Z,98316.56
2023-01-13T07:44:30.796Z,98310.92
2023-01-13T07:46:58.917Z,98310.69
2023-01-13T07:49:27.179Z,98311.05
2023-01-13T07:51:55.244Z,98312.20
2023-01-13T07:54:35.137Z,98311.25
2023-01-13T07:57:08.697Z,98305.52
2023-01-13T07:59:37.210Z,98305.23
2023-01-13T08:02:05.483Z,98309.59
2023-01-13T08:04:34.146Z,98309.23
2023-01-13T08:07:02.469Z,98309.38
2023-01-13T08:09:30.560Z,98308.76
2023-01-13T08:12:17.367Z,98310.05
2023-01-13T08:14:45.772Z,98307.63
2023-01-13T08:17:14.058Z,98307.20
2023-01-13T08:19:42.255Z,98311.06
2023-01-13T08:22:10.390Z,98310.15
2023-01-13T08:24:38.899Z,98307.48
2023-01-13T08:27:07.212Z,98310.60
2023-01-13T08:29:35.424Z,98308.79
2023-01-13T08:32:03.503Z,98308.94
2023-01-13T08:34:31.618Z,98312.27
2023-01-13T08:36:59.839Z,98309.98
2023-01-13T08:39:28.170Z,98313.73
2023-01-13T08:41:56.651Z,98314.01
2023-01-13T08:44:27.735Z,98318.66
2023-01-13T08:46:56.566Z,98319.81
2023-01-13T08:49:25.615Z,98318.39
2023-01-13T08:51:54.308Z,98319.16
2023-01-13T08:54:22.793Z,98319.40
2023-01-13T08:56:51.073Z,98320.10
2023-01-13T08:59:20.463Z,98320.73
2023-01-13T09:01:48.780Z,98319.20
2023-01-13T09:04:20.233Z,98317.46
2023-01-13T09:06:49.461Z,98316.63
2023-01-13T09:09:18.164Z,98317.57
2023-01-13T09:12:07.945Z,98315.66
2023-01-13T09:14:38.318Z,98317.19
2023-01-13T09:17:07.944Z,98315.81
2023-01-13T09:19:36.952Z,98319.95
2023-01-13T09:22:05.306Z,98317.31
2023-01-13T09:24:33.627Z,98310.81
2023-01-13T09:27:02.314Z,98306.34
2023-01-13T09:29:30.486Z,98308.41
2023-01-13T09:31:58.496Z,98305.38
2023-01-13T09:34:46.593Z,98305.16
2023-01-13T09:37:14.987Z,98305.98
2023-01-13T09:39:43.434Z,98303.09
2023-01-13T09:42:33.375Z,98298.13
2023-01-13T09:45:09.394Z,98290.77
2023-01-13T09:48:00.103Z,98287.58
2023-01-13T09:50:46.907Z,98288.79
2023-01-13T09:53:40.474Z,98288.73
2023-01-13T09:56:11.316Z,98285.44
2023-01-13T09:58:39.583Z,98283.16
2023-01-13T10:01:29.598Z,98280.62
2023-01-13T10:04:02.712Z,98279.04
2023-01-13T10:06:38.818Z,98276.71
2023-01-13T10:09:30.860Z,98275.61
2023-01-13T10:12:19.871Z,98271.56
2023-01-13T10:14:54.642Z,98268.80
2023-01-13T10:17:36.951Z,98269.66
2023-01-13T10:20:08.323Z,98264.20
2023-01-13T10:22:59.219Z,98259.23
2023-01-13T10:25:55.062Z,98253.42
2023-01-13T10:28:25.249Z,98251.14
2023-01-13T10:30:53.691Z,98250.92
2023-01-13T10:33:27.774Z,98248.90
2023-01-13T10:36:02.471Z,98248.34
2023-01-13T10:38:38.031Z,98245.19
2023-01-13T10:41:19.580Z,98240.10
2023-01-13T10:44:04.311Z,98239.61
2023-01-13T10:46:35.325Z,98236.13
2023-01-13T10:49:23.205Z,98234.66
2023-01-13T10:51:51.335Z,98233.56
2023-01-13T10:54:25.316Z,98234.19
2023-01-13T10:57:13.989Z,98233.91
2023-01-13T10:59:42.739Z,98228.33
2023-01-13T11:02:25.295Z,98226.80
2023-01-13T11:04:54.614Z,98227.43
2023-01-13T11:07:30.927Z,98225.42
2023-01-13T11:10:20.878Z,98220.16
2023-01-13T11:13:01.272Z,98217.66
2023-01-13T11:15:58.921Z,98214.30
2023-01-13T11:18:52.111Z,98213.38
2023-01-13T11:21:51.697Z,98215.95
2023-01-13T11:24:45.168Z,98209.90
2023-01-13T11:27:20.571Z,98209.83
2023-01-13T11:30:10.030Z,98206.29
2023-01-13T11:32:56.283Z,98201.98
2023-01-13T11:35:25.368Z,98196.97
2023-01-13T11:38:03.082Z,98195.23
2023-01-13T11:40:37.936Z,98192.48
2023-01-13T11:43:29.963Z,98187.33
2023-01-13T11:46:01.226Z,98185.63
2023-01-13T11:48:32.893Z,98182.39
2023-01-13T11:51:00.901Z,98178.42
2023-01-13T11:53:34.713Z,98178.86
2023-01-13T11:56:08.969Z,98181.14
2023-01-13T11:58:57.888Z,98179.98
2023-01-13T12:01:32.790Z,98179.48
2023-01-13T12:04:18.516Z,98178.81
2023-01-13T12:06:50.659Z,98176.74
2023-01-13T12:09:26.105Z,98174.95
2023-01-13T12:12:45.077Z,98177.48
2023-01-13T12:15:22.567Z,98168.27
2023-01-13T12:18:07.626Z,98168.36
2023-01-13T12:20:52.800Z,98164.66
2023-01-13T12:23:30.201Z,98167.20
2023-01-13T12:26:11.891Z,98165.09
2023-01-13T12:29:00.799Z,98163.73
2023-01-13T12:31:30.329Z,98169.02
2023-01-13T12:34:14.441Z,98173.48
2023-01-13T12:37:11.849Z,98170.80
2023-01-13T12:39:39.868Z,98169.15
2023-01-13T12:42:35.232Z,98169.46
2023-01-13T12:45:12.363Z,98171.41
2023-01-13T12:47:44.403Z,98177.90
2023-01-13T12:50:27.320Z,98171.73
2023-01-13T12:53:21.380Z,98169.08
2023-01-13T12:55:53.364Z,98171.67
2023-01-13T12:58:28.438Z,98174.32
2023-01-13T13:01:12.109Z,98174.53
2023-01-13T13:03:40.899Z,98173.88
2023-01-13T13:06:20.866Z,98174.58
2023-01-13T13:09:16.303Z,98172.14
2023-01-13T13:11:58.260Z,98172.47
2023-01-13T13:14:41.839Z,98172.05
2023-01-13T13:17:28.581Z,98167.67
2023-01-13T13:19:58.325Z,98169.36
2023-01-13T13:22:26.338Z,98170.35
2023-01-13T13:24:54.646Z,98163.39
2023-01-13T13:27:27.735Z,98159.81
2023-01-13T13:30:13.420Z,98159.16
2023-01-13T13:32:44.786Z,98159.98
2023-01-13T13:35:40.387Z,98161.73
2023-01-13T13:38:49.923Z,98170.11
2023-01-13T13:41:41.447Z,98174.93
2023-01-13T13:44:37.577Z,98175.65
2023-01-13T13:47:08.019Z,98172.77
2023-01-13T13:49:41.424Z,98175.45
2023-01-13T13:52:18.287Z,98174.91
2023-01-13T13:54:52.116Z,98174.34
2023-01-13T13:57:39.432Z,98174.23
2023-01-13T14:00:33.515Z,98175.00
2023-01-13T14:03:05.578Z,98179.96
2023-01-13T14:05:36.193Z,98179.40
2023-01-13T14:08:14.804Z,98181.27
2023-01-13T14:10:45.234Z,98181.82
2023-01-13T14:13:28.780Z,98185.30
2023-01-13T14:16:15.543Z,98189.95
2023-01-13T14:18:48.328Z,98190.27
2023-01-13T14:21:19.606Z,98186.29
2023-01-13T14:23:53.851Z,98183.55
2023-01-13T14:26:27.894Z,98183.90
2023-01-13T14:28:58.502Z,98190.52
2023-01-13T14:31:27.321Z,98195.11
2023-01-13T14:33:58.368Z,98199.48
2023-01-13T14:36:32.712Z,98202.20
2023-01-13T14:39:03.975Z,98205.06
2023-01-13T14:41:43.104Z,98207.66
2023-01-13T14:44:31.543Z,98207.77
2023-01-13T14:47:03.333Z,98205.94
2023-01-13T14:49:39.661Z,98204.87
2023-01-13T14:52:21.144Z,98209.13
2023-01-13T14:55:27.590Z,98211.97
2023-01-13T14:58:23.432Z,98212.91
2023-01-13T15:00:53.114Z,98207.86
2023-01-13T15:03:21.811Z,98209.81
2023-01-13T15:05:52.181Z,98210.12
2023-01-13T15:08:27.505Z,98211.14
2023-01-13T15:11:03.532Z,98208.61
2023-01-13T15:13:52.828Z,98207.66
2023-01-13T15:16:25.279Z,98214.08
2023-01-13T15:18:56.236Z,98209.11
2023-01-13T15:21:25.427Z,98206.27
2023-01-13T15:23:53.704Z,98204.45
2023-01-13T15:26:28.420Z,98202.38
2023-01-13T15:28:59.252Z,98200.85
2023-01-13T15:31:28.326Z,98201.55
2023-01-13T15:33:57.243Z,98201.71
2023-01-13T15:36:28.912Z,98199.98
2023-01-13T15:38:58.405Z,98204.47
2023-01-13T15:41:45.707Z,98209.08
2023-01-13T15:44:34.063Z,98208.84
2023-01-13T15:47:08.388Z,98209.70
2023-01-13T15:49:42.227Z,98208.75
2023-01-13T15:52:23.512Z,98212.58
2023-01-13T15:54:53.136Z,98215.80
2023-01-13T15:57:22.282Z,98212.23
2023-01-13T15:59:51.973Z,98206.98
2023-01-13T16:02:22.513Z,98204.02
2023-01-13T16:04:53.912Z,98208.56
2023-01-13T16:07:24.800Z,98208.36
2023-01-13T16:09:53.585Z,98204.83
2023-01-13T16:12:21.759Z,98198.96
2023-01-13T16:14:49.840Z,98199.10
2023-01-13T16:17:24.093Z,98197.98
2023-01-13T16:19:52.327Z,98196.95
2023-01-13T16:22:20.417Z,98197.14
2023-01-13T16:24:48.705Z,98197.60
2023-01-13T16:27:22.397Z,98196.30
2023-01-13T16:29:51.860Z,98196.64
2023-01-13T16:32:21.129Z,98197.39
2023-01-13T16:34:49.891Z,98200.80
2023-01-13T16:37:25.898Z,98197.20
2023-01-13T16:39:55.063Z,98195.39
2023-01-13T16:42:24.174Z,98191.44
2023-01-13T16:44:53.044Z,98195.98
2023-01-13T16:47:22.885Z,98195.83
2023-01-13T16:49:51.561Z,98195.60
2023-01-13T16:52:19.604Z,98193.23
2023-01-13T16:54:47.685Z,98194.31
2023-01-13T16:57:15.966Z,98195.80
2023-01-13T16:59:44.363Z,98196.95
2023-01-13T17:02:15.118Z,98198.86
2023-01-13T17:04:43.597Z,98203.20
2023-01-13T17:07:16.730Z,98202.39
2023-01-13T17:09:45.033Z,98200.70
2023-01-13T17:12:13.422Z,98198.52
2023-01-13T17:14:43.528Z,98196.52
2023-01-13T17:17:43.174Z,98196.96
2023-01-13T17:20:12.917Z,98195.19
2023-01-13T17:22:42.415Z,98193.55
2023-01-13T17:25:13.547Z,98197.66
2023-01-13T17:27:42.320Z,98196.35
2023-01-13T17:30:14.194Z,98198.27
2023-01-13T17:32:42.461Z,98199.85
2023-01-13T17:35:10.588Z,98196.07
2023-01-13T17:37:38.617Z,98196.16
2023-01-13T17:40:07.718Z,98195.05
2023-01-13T17:42:37.261Z,98192.80
2023-01-13T17:45:07.072Z,98190.97
2023-01-13T17:47:35.345Z,98188.82
2023-01-13T17:50:04.841Z,98189.14
2023-01-13T17:52:33.561Z,98189.75
2023-01-13T17:55:01.701Z,98186.58
2023-01-13T17:57:29.869Z,98185.05
2023-01-13T17:59:59.724Z,98186.64
2023-01-13T18:02:30.206Z,98181.76
2023-01-13T18:04:58.514Z,98182.20
2023-01-13T18:07:26.558Z,98181.02
2023-01-13T18:09:54.852Z,98179.09
2023-01-13T18:12:23.435Z,98176.26
2023-01-13T18:14:51.587Z,98179.81
2023-01-13T18:17:19.684Z,98182.61
2023-01-13T18:20:06.455Z,98179.48
2023-01-13T18:22:52.851Z,98177.48
2023-01-13T18:25:39.372Z,98177.48
2023-01-13T18:28:07.645Z,98180.31
2023-01-13T18:30:35.770Z,98181.55
2023-01-13T18:33:04.186Z,98183.89
2023-01-13T18:35:32.463Z,98185.30
2023-01-13T18:38:00.433Z,98182.72
2023-01-13T18:40:28.606Z,98183.21
2023-01-13T18:42:59.033Z,98181.54
2023-01-13T18:45:29.951Z,98178.15
2023-01-13T18:48:00.823Z,98176.13
2023-01-13T18:50:30.515Z,98180.52
2023-01-13T18:52:59.039Z,98176.09
2023-01-13T18:55:28.821Z,98169.59
2023-01-13T18:57:57.286Z,98169.90
2023-01-13T19:00:27.253Z,98166.73
2023-01-13T19:05:36.329Z,98176.83
2023-01-13T19:08:05.539Z,98175.30
2023-01-13T19:10:33.763Z,98174.13
2023-01-13T19:13:02.321Z,98173.27
2023-01-13T19:15:30.759Z,98171.48
2023-01-13T19:17:58.834Z,98174.17
2023-01-13T19:20:26.880Z,98172.98
2023-01-13T19:22:55.084Z,98175.69
2023-01-13T19:25:23.362Z,98172.50
2023-01-13T19:27:51.634Z,98173.22
2023-01-13T19:30:19.932Z,98174.42
2023-01-13T19:32:48.078Z,98177.40
2023-01-13T19:35:18.201Z,98179.02
2023-01-13T19:37:46.989Z,98179.84
2023-01-13T19:40:15.811Z,98180.16
2023-01-13T19:43:13.241Z,98181.41
2023-01-13T19:45:41.306Z,98181.39
2023-01-13T19:48:09.526Z,98186.16
2023-01-13T19:50:41.570Z,98186.42
2023-01-13T19:53:16.653Z,98181.91
2023-01-13T19:55:48.399Z,98181.38
2023-01-13T19:58:20.817Z,98181.77
2023-01-13T20:00:49.160Z,98185.23
2023-01-13T20:03:20.842Z,98183.84
2023-01-13T20:05:49.714Z,98182.73
2023-01-13T20:08:22.667Z,98186.02
2023-01-13T20:11:11.034Z,98190.02
2023-01-13T20:13:39.267Z,98188.77
2023-01-13T20:16:07.931Z,98187.35
2023-01-13T20:18:37.323Z,98191.78
2023-01-13T20:21:06.504Z,98193.44
2023-01-13T20:23:34.552Z,98193.08
2023-01-13T20:26:02.653Z,98195.90
2023-01-13T20:28:30.699Z,98196.10
2023-01-13T20:30:58.697Z,98191.15
2023-01-13T20:33:26.818Z,98192.33
2023-01-13T20:35:58.637Z,98192.64
2023-01-13T20:38:26.896Z,98191.11
2023-01-13T20:40:59.471Z,98187.67
2023-01-13T20:43:27.817Z,98190.33
2023-01-13T20:45:55.923Z,98193.86
2023-01-13T20:48:24.195Z,98199.86
2023-01-13T20:50:54.339Z,98197.98
2023-01-13T20:53:22.691Z,98196.49
2023-01-13T20:55:51.066Z,98196.05
2023-01-13T20:58:19.136Z,98193.73
2023-01-13T21:00:48.402Z,98194.36
2023-01-13T21:03:16.515Z,98199.03
2023-01-13T21:05:44.579Z,98198.79
2023-01-13T21:08:12.759Z,98204.61
2023-01-13T21:10:40.957Z,98201.13
2023-01-13T21:13:29.673Z,98200.41
2023-01-13T21:15:58.076Z,98207.91
2023-01-13T21:18:45.078Z,98205.13
2023-01-13T21:21:13.761Z,98206.80
2023-01-13T21:23:43.805Z,98204.31
2023-01-13T21:26:14.941Z,98205.05
2023-01-13T21:28:42.933Z,98205.52
2023-01-13T21:31:11.615Z,98207.41
2023-01-13T21:33:39.978Z,98201.52
2023-01-13T21:36:11.117Z,98203.08
2023-01-13T21:38:39.824Z,98203.24
2023-01-13T21:41:09.311Z,98207.04
2023-01-13T21:43:56.303Z,98211.45
2023-01-13T21:46:43.483Z,98205.70
2023-01-13T21:49:11.781Z,98208.94
2023-01-13T21:51:40.066Z,98209.62
2023-01-13T21:54:08.081Z,98206.41
2023-01-13T21:56:36.077Z,98206.70
2023-01-13T21:59:04.145Z,98207.31
2023-01-13T22:01:32.409Z,98208.48
2023-01-13T22:04:12.651Z,98207.47
2023-01-13T22:06:40.850Z,98208.00
2023-01-13T22:09:08.937Z,98209.88
2023-01-13T22:11:37.112Z,98209.98
2023-01-13T22:14:11.185Z,98209.21
2023-01-13T22:16:42.361Z,98209.14
2023-01-13T22:19:10.852Z,98209.61
2023-01-13T22:21:40.048Z,98217.53
2023-01-13T22:24:08.349Z,98220.66
2023-01-13T22:26:36.594Z,98223.86
2023-01-13T22:29:04.673Z,98219.93
2023-01-13T22:31:32.774Z,98221.14
2023-01-13T22:34:01.326Z,98225.16
2023-01-13T22:36:29.505Z,98224.34
2023-01-13T22:39:00.394Z,98226.98
2023-01-13T22:41:28.949Z,98226.08
2023-01-13T22:43:57.352Z,98226.73
2023-01-13T22:46:25.662Z,98232.77
2023-01-13T22:48:56.045Z,98240.09
2023-01-13T22:51:25.219Z,98239.47
2023-01-13T22:53:54.381Z,98236.92
2023-01-13T22:56:24.917Z,98237.23
2023-01-13T22:58:58.428Z,98236.80
2023-01-13T23:01:32.902Z,98241.02
2023-01-13T23:04:02.237Z,98243.67
2023-01-13T23:06:33.299Z,98245.83
2023-01-13T23:09:01.754Z,98246.91
2023-01-13T23:11:30.655Z,98246.58
2023-01-13T23:14:04.186Z,98247.30
2023-01-13T23:16:35.615Z,98245.24
2023-01-13T23:19:05.189Z,98244.51
2023-01-13T23:21:36.821Z,98243.98
2023-01-13T23:24:07.152Z,98247.10
2023-01-13T23:26:35.837Z,98248.72
2023-01-13T23:29:09.264Z,98243.73
2023-01-13T23:31:38.142Z,98239.52
2023-01-13T23:34:06.306Z,98239.12
2023-01-13T23:36:37.194Z,98240.95
2023-01-13T23:39:05.327Z,98239.51
2023-01-13T23:41:33.348Z,98238.81
2023-01-13T23:44:01.761Z,98240.81
2023-01-13T23:46:32.836Z,98239.97
2023-01-13T23:49:02.713Z,98237.71
2023-01-13T23:51:31.013Z,98240.79
2023-01-13T23:54:00.010Z,98237.16
2023-01-13T23:56:30.822Z,98239.15
2023-01-13T23:58:59.397Z,98238.96
